sensor_id;sensor_type;location;lat;lon;timestamp;temperature;humidity
66610;DHT22;53468;48.276;14.416;2023-08-21T00:03:54;20.60;99.90
66610;DHT22;53468;48.276;14.416;2023-08-21T00:08:56;20.60;99.90
66610;DHT22;53468;48.276;14.416;2023-08-21T00:14:00;20.40;99.90
66610;DHT22;53468;48.276;14.416;2023-08-21T00:19:02;20.40;99.90
66610;DHT22;53468;48.276;14.416;2023-08-21T00:24:05;20.40;99.90
66610;DHT22;53468;48.276;14.416;2023-08-21T00:29:09;20.40;99.90
66610;DHT22;53468;48.276;14.416;2023-08-21T00:34:11;20.30;99.90
66610;DHT22;53468;48.276;14.416;2023-08-21T00:39:14;20.20;99.90
66610;DHT22;53468;48.276;14.416;2023-08-21T00:44:17;20.10;99.90
66610;DHT22;53468;48.276;14.416;2023-08-21T00:49:20;20.10;99.90
66610;DHT22;53468;48.276;14.416;2023-08-21T00:54:22;20.00;99.90
66610;DHT22;53468;48.276;14.416;2023-08-21T00:59:27;20.00;99.90
66610;DHT22;53468;48.276;14.416;2023-08-21T01:04:30;20.00;99.90
66610;DHT22;53468;48.276;14.416;2023-08-21T01:09:38;20.00;99.90
66610;DHT22;53468;48.276;14.416;2023-08-21T01:14:51;20.00;99.90
66610;DHT22;53468;48.276;14.416;2023-08-21T01:19:55;20.00;99.90
66610;DHT22;53468;48.276;14.416;2023-08-21T01:24:59;20.00;99.90
66610;DHT22;53468;48.276;14.416;2023-08-21T01:30:03;19.90;99.90
66610;DHT22;53468;48.276;14.416;2023-08-21T01:35:07;19.80;99.90
66610;DHT22;53468;48.276;14.416;2023-08-21T01:40:20;19.80;99.90
66610;DHT22;53468;48.276;14.416;2023-08-21T01:45:23;19.60;99.90
66610;DHT22;53468;48.276;14.416;2023-08-21T01:50:26;19.60;99.90
66610;DHT22;53468;48.276;14.416;2023-08-21T01:55:30;19.60;99.90
66610;DHT22;53468;48.276;14.416;2023-08-21T02:00:33;19.60;99.90
66610;DHT22;53468;48.276;14.416;2023-08-21T02:05:39;19.60;99.90
66610;DHT22;53468;48.276;14.416;2023-08-21T02:10:53;19.50;99.90
66610;DHT22;53468;48.276;14.416;2023-08-21T02:15:56;19.40;99.90
66610;DHT22;53468;48.276;14.416;2023-08-21T02:21:01;19.40;99.90
66610;DHT22;53468;48.276;14.416;2023-08-21T02:26:05;19.40;99.90
66610;DHT22;53468;48.276;14.416;2023-08-21T02:31:09;19.30;99.90
66610;DHT22;53468;48.276;14.416;2023-08-21T02:36:12;19.20;99.90
66610;DHT22;53468;48.276;14.416;2023-08-21T02:41:16;19.20;99.90
66610;DHT22;53468;48.276;14.416;2023-08-21T02:46:20;19.20;99.90
66610;DHT22;53468;48.276;14.416;2023-08-21T02:51:23;19.10;99.90
66610;DHT22;53468;48.276;14.416;2023-08-21T02:56:27;19.20;99.90
66610;DHT22;53468;48.276;14.416;2023-08-21T03:01:29;19.10;99.90
66610;DHT22;53468;48.276;14.416;2023-08-21T03:06:32;19.10;99.90
66610;DHT22;53468;48.276;14.416;2023-08-21T03:11:36;19.10;99.90
66610;DHT22;53468;48.276;14.416;2023-08-21T03:16:39;19.00;99.90
66610;DHT22;53468;48.276;14.416;2023-08-21T03:21:41;19.00;99.90
66610;DHT22;53468;48.276;14.416;2023-08-21T03:26:45;18.90;99.90
66610;DHT22;53468;48.276;14.416;2023-08-21T03:31:50;19.00;99.90
66610;DHT22;53468;48.276;14.416;2023-08-21T03:36:52;18.90;99.90
66610;DHT22;53468;48.276;14.416;2023-08-21T03:41:57;18.80;99.90
66610;DHT22;53468;48.276;14.416;2023-08-21T03:46:59;18.70;99.90
66610;DHT22;53468;48.276;14.416;2023-08-21T03:52:02;18.60;99.90
66610;DHT22;53468;48.276;14.416;2023-08-21T03:57:08;18.60;99.90
66610;DHT22;53468;48.276;14.416;2023-08-21T04:02:11;18.60;99.90
66610;DHT22;53468;48.276;14.416;2023-08-21T04:07:14;18.60;99.90
66610;DHT22;53468;48.276;14.416;2023-08-21T04:12:19;18.60;99.90
66610;DHT22;53468;48.276;14.416;2023-08-21T04:17:22;18.60;99.90
66610;DHT22;53468;48.276;14.416;2023-08-21T04:22:25;18.50;99.90
66610;DHT22;53468;48.276;14.416;2023-08-21T04:27:30;18.50;99.90
66610;DHT22;53468;48.276;14.416;2023-08-21T04:32:34;18.40;99.90
66610;DHT22;53468;48.276;14.416;2023-08-21T04:37:43;18.40;99.90
66610;DHT22;53468;48.276;14.416;2023-08-21T04:42:49;18.50;99.90
66610;DHT22;53468;48.276;14.416;2023-08-21T04:47:51;18.50;99.90
66610;DHT22;53468;48.276;14.416;2023-08-21T04:52:54;18.50;99.90
66610;DHT22;53468;48.276;14.416;2023-08-21T04:57:59;18.50;99.90
66610;DHT22;53468;48.276;14.416;2023-08-21T05:03:02;18.60;99.90
66610;DHT22;53468;48.276;14.416;2023-08-21T05:08:05;18.70;99.90
66610;DHT22;53468;48.276;14.416;2023-08-21T05:13:10;18.70;99.90
66610;DHT22;53468;48.276;14.416;2023-08-21T05:18:13;18.70;99.90
66610;DHT22;53468;48.276;14.416;2023-08-21T05:23:16;18.90;99.90
66610;DHT22;53468;48.276;14.416;2023-08-21T05:28:24;19.00;99.90
66610;DHT22;53468;48.276;14.416;2023-08-21T05:33:41;19.00;99.90
66610;DHT22;53468;48.276;14.416;2023-08-21T05:38:49;19.10;99.90
66610;DHT22;53468;48.276;14.416;2023-08-21T05:44:01;19.20;99.90
66610;DHT22;53468;48.276;14.416;2023-08-21T05:49:05;19.30;99.90
66610;DHT22;53468;48.276;14.416;2023-08-21T05:54:13;19.40;99.90
66610;DHT22;53468;48.276;14.416;2023-08-21T06:04:59;19.50;99.90
66610;DHT22;53468;48.276;14.416;2023-08-21T06:10:12;19.80;99.90
66610;DHT22;53468;48.276;14.416;2023-08-21T06:15:38;19.90;99.90
66610;DHT22;53468;48.276;14.416;2023-08-21T06:20:48;20.10;99.90
66610;DHT22;53468;48.276;14.416;2023-08-21T06:25:57;20.20;99.90
66610;DHT22;53468;48.276;14.416;2023-08-21T06:31:02;20.30;99.90
66610;DHT22;53468;48.276;14.416;2023-08-21T06:36:20;20.50;99.90
66610;DHT22;53468;48.276;14.416;2023-08-21T06:41:22;20.60;99.90
66610;DHT22;53468;48.276;14.416;2023-08-21T06:46:26;20.80;99.90
66610;DHT22;53468;48.276;14.416;2023-08-21T06:51:30;21.00;99.90
66610;DHT22;53468;48.276;14.416;2023-08-21T06:56:35;21.20;99.90
66610;DHT22;53468;48.276;14.416;2023-08-21T07:01:37;21.40;99.90
66610;DHT22;53468;48.276;14.416;2023-08-21T07:06:41;21.70;99.90
66610;DHT22;53468;48.276;14.416;2023-08-21T07:11:43;22.30;99.90
66610;DHT22;53468;48.276;14.416;2023-08-21T07:16:45;23.10;99.90
66610;DHT22;53468;48.276;14.416;2023-08-21T07:21:48;23.90;99.90
66610;DHT22;53468;48.276;14.416;2023-08-21T07:26:50;24.60;99.90
66610;DHT22;53468;48.276;14.416;2023-08-21T07:31:52;25.30;99.90
66610;DHT22;53468;48.276;14.416;2023-08-21T07:36:56;25.90;99.90
66610;DHT22;53468;48.276;14.416;2023-08-21T07:41:58;26.40;99.90
66610;DHT22;53468;48.276;14.416;2023-08-21T07:47:00;26.90;99.90
66610;DHT22;53468;48.276;14.416;2023-08-21T07:52:05;27.00;99.90
66610;DHT22;53468;48.276;14.416;2023-08-21T07:57:07;27.50;99.90
66610;DHT22;53468;48.276;14.416;2023-08-21T08:02:09;27.80;99.90
66610;DHT22;53468;48.276;14.416;2023-08-21T08:07:13;28.10;99.90
66610;DHT22;53468;48.276;14.416;2023-08-21T08:12:16;28.70;99.90
66610;DHT22;53468;48.276;14.416;2023-08-21T08:17:18;28.90;99.90
66610;DHT22;53468;48.276;14.416;2023-08-21T08:22:21;29.10;99.90
66610;DHT22;53468;48.276;14.416;2023-08-21T08:27:23;29.30;99.90
66610;DHT22;53468;48.276;14.416;2023-08-21T08:32:25;29.40;99.90
66610;DHT22;53468;48.276;14.416;2023-08-21T08:37:29;29.50;99.90
66610;DHT22;53468;48.276;14.416;2023-08-21T08:42:31;29.80;99.90
66610;DHT22;53468;48.276;14.416;2023-08-21T08:47:33;29.80;99.90
66610;DHT22;53468;48.276;14.416;2023-08-21T08:52:39;29.90;99.90
66610;DHT22;53468;48.276;14.416;2023-08-21T08:57:41;29.90;99.90
66610;DHT22;53468;48.276;14.416;2023-08-21T09:02:43;29.90;99.90
66610;DHT22;53468;48.276;14.416;2023-08-21T09:08:02;29.80;99.90
66610;DHT22;53468;48.276;14.416;2023-08-21T09:13:10;29.60;99.90
66610;DHT22;53468;48.276;14.416;2023-08-21T09:18:13;30.00;99.90
66610;DHT22;53468;48.276;14.416;2023-08-21T09:23:17;30.10;99.90
66610;DHT22;53468;48.276;14.416;2023-08-21T09:28:20;30.30;99.90
66610;DHT22;53468;48.276;14.416;2023-08-21T09:33:23;30.40;99.90
66610;DHT22;53468;48.276;14.416;2023-08-21T09:38:27;30.30;99.90
66610;DHT22;53468;48.276;14.416;2023-08-21T09:43:30;30.50;99.90
66610;DHT22;53468;48.276;14.416;2023-08-21T09:48:33;30.60;99.90
66610;DHT22;53468;48.276;14.416;2023-08-21T09:53:37;30.60;99.90
66610;DHT22;53468;48.276;14.416;2023-08-21T09:58:40;30.70;99.90
66610;DHT22;53468;48.276;14.416;2023-08-21T10:03:43;30.90;99.90
66610;DHT22;53468;48.276;14.416;2023-08-21T10:08:53;30.70;99.90
66610;DHT22;53468;48.276;14.416;2023-08-21T10:13:56;30.80;99.90
66610;DHT22;53468;48.276;14.416;2023-08-21T10:19:03;30.80;99.90
66610;DHT22;53468;48.276;14.416;2023-08-21T10:24:07;30.90;99.90
66610;DHT22;53468;48.276;14.416;2023-08-21T10:29:09;30.80;99.90
66610;DHT22;53468;48.276;14.416;2023-08-21T10:34:12;30.90;99.90
66610;DHT22;53468;48.276;14.416;2023-08-21T10:39:17;31.00;99.90
66610;DHT22;53468;48.276;14.416;2023-08-21T10:44:34;30.80;99.90
66610;DHT22;53468;48.276;14.416;2023-08-21T10:49:36;30.90;99.90
66610;DHT22;53468;48.276;14.416;2023-08-21T10:54:50;30.90;99.20
66610;DHT22;53468;48.276;14.416;2023-08-21T10:59:54;31.00;99.90
66610;DHT22;53468;48.276;14.416;2023-08-21T11:04:57;31.00;97.60
66610;DHT22;53468;48.276;14.416;2023-08-21T11:10:01;30.90;97.80
66610;DHT22;53468;48.276;14.416;2023-08-21T11:15:04;30.70;97.30
66610;DHT22;53468;48.276;14.416;2023-08-21T11:20:08;30.90;98.70
66610;DHT22;53468;48.276;14.416;2023-08-21T11:25:11;30.70;96.80
66610;DHT22;53468;48.276;14.416;2023-08-21T11:30:13;30.70;97.70
66610;DHT22;53468;48.276;14.416;2023-08-21T11:35:16;30.80;96.10
66610;DHT22;53468;48.276;14.416;2023-08-21T11:40:19;30.70;97.30
66610;DHT22;53468;48.276;14.416;2023-08-21T11:45:22;30.70;98.80
66610;DHT22;53468;48.276;14.416;2023-08-21T11:50:24;30.90;97.00
66610;DHT22;53468;48.276;14.416;2023-08-21T11:55:29;31.00;96.70
66610;DHT22;53468;48.276;14.416;2023-08-21T12:00:32;31.10;96.70
66610;DHT22;53468;48.276;14.416;2023-08-21T12:05:42;31.10;96.70
66610;DHT22;53468;48.276;14.416;2023-08-21T12:10:50;31.10;94.70
66610;DHT22;53468;48.276;14.416;2023-08-21T12:15:55;31.00;93.10
66610;DHT22;53468;48.276;14.416;2023-08-21T12:20:58;31.10;95.00
66610;DHT22;53468;48.276;14.416;2023-08-21T12:26:04;31.00;92.70
66610;DHT22;53468;48.276;14.416;2023-08-21T12:31:07;31.00;93.90
66610;DHT22;53468;48.276;14.416;2023-08-21T12:36:09;31.40;90.20
66610;DHT22;53468;48.276;14.416;2023-08-21T12:41:14;31.50;89.40
66610;DHT22;53468;48.276;14.416;2023-08-21T12:46:16;31.70;92.30
66610;DHT22;53468;48.276;14.416;2023-08-21T12:51:18;31.70;91.10
66610;DHT22;53468;48.276;14.416;2023-08-21T12:56:22;31.90;90.90
66610;DHT22;53468;48.276;14.416;2023-08-21T13:01:24;31.90;89.50
66610;DHT22;53468;48.276;14.416;2023-08-21T13:06:27;32.00;86.40
66610;DHT22;53468;48.276;14.416;2023-08-21T13:11:31;32.00;89.30
66610;DHT22;53468;48.276;14.416;2023-08-21T13:16:34;31.90;88.80
66610;DHT22;53468;48.276;14.416;2023-08-21T13:21:36;31.90;78.70
66610;DHT22;53468;48.276;14.416;2023-08-21T13:26:40;31.90;85.00
66610;DHT22;53468;48.276;14.416;2023-08-21T13:31:42;32.20;88.70
66610;DHT22;53468;48.276;14.416;2023-08-21T13:36:45;32.10;85.20
66610;DHT22;53468;48.276;14.416;2023-08-21T13:41:50;32.20;87.30
66610;DHT22;53468;48.276;14.416;2023-08-21T13:46:53;32.20;88.30
66610;DHT22;53468;48.276;14.416;2023-08-21T13:51:57;32.30;87.60
66610;DHT22;53468;48.276;14.416;2023-08-21T13:57:02;32.40;86.40
66610;DHT22;53468;48.276;14.416;2023-08-21T14:02:05;32.40;90.40
66610;DHT22;53468;48.276;14.416;2023-08-21T14:07:07;32.40;88.20
66610;DHT22;53468;48.276;14.416;2023-08-21T14:12:11;32.50;90.00
66610;DHT22;53468;48.276;14.416;2023-08-21T14:17:15;32.50;85.20
66610;DHT22;53468;48.276;14.416;2023-08-21T14:22:18;32.80;78.70
66610;DHT22;53468;48.276;14.416;2023-08-21T14:27:23;32.90;79.80
66610;DHT22;53468;48.276;14.416;2023-08-21T14:32:27;32.70;82.90
66610;DHT22;53468;48.276;14.416;2023-08-21T14:37:31;32.60;79.80
66610;DHT22;53468;48.276;14.416;2023-08-21T14:42:35;32.60;79.70
66610;DHT22;53468;48.276;14.416;2023-08-21T14:47:40;32.70;81.60
66610;DHT22;53468;48.276;14.416;2023-08-21T14:52:43;32.80;80.00
66610;DHT22;53468;48.276;14.416;2023-08-21T14:57:46;32.80;77.00
66610;DHT22;53468;48.276;14.416;2023-08-21T15:02:49;33.00;73.50
66610;DHT22;53468;48.276;14.416;2023-08-21T15:07:52;33.00;73.10
66610;DHT22;53468;48.276;14.416;2023-08-21T15:24:35;32.80;74.80
66610;DHT22;53468;48.276;14.416;2023-08-21T15:29:38;32.70;74.30
66610;DHT22;53468;48.276;14.416;2023-08-21T15:34:41;32.70;77.00
66610;DHT22;53468;48.276;14.416;2023-08-21T15:39:48;32.80;76.60
66610;DHT22;53468;48.276;14.416;2023-08-21T15:44:50;32.70;76.40
66610;DHT22;53468;48.276;14.416;2023-08-21T15:49:53;32.70;75.50
66610;DHT22;53468;48.276;14.416;2023-08-21T15:54:57;32.80;77.60
66610;DHT22;53468;48.276;14.416;2023-08-21T15:59:59;32.70;76.30
66610;DHT22;53468;48.276;14.416;2023-08-21T16:05:03;32.70;75.20
66610;DHT22;53468;48.276;14.416;2023-08-21T16:10:09;32.70;74.60
66610;DHT22;53468;48.276;14.416;2023-08-21T16:15:15;32.60;75.00
66610;DHT22;53468;48.276;14.416;2023-08-21T16:20:17;32.50;76.80
66610;DHT22;53468;48.276;14.416;2023-08-21T16:25:21;32.30;75.90
66610;DHT22;53468;48.276;14.416;2023-08-21T16:30:23;32.00;77.40
66610;DHT22;53468;48.276;14.416;2023-08-21T16:35:25;31.90;81.50
66610;DHT22;53468;48.276;14.416;2023-08-21T16:40:30;31.60;81.40
66610;DHT22;53468;48.276;14.416;2023-08-21T16:45:32;31.50;76.40
66610;DHT22;53468;48.276;14.416;2023-08-21T16:50:35;31.30;74.70
66610;DHT22;53468;48.276;14.416;2023-08-21T16:55:38;31.10;76.80
66610;DHT22;53468;48.276;14.416;2023-08-21T17:00:40;30.90;79.20
66610;DHT22;53468;48.276;14.416;2023-08-21T17:05:42;30.70;79.20
66610;DHT22;53468;48.276;14.416;2023-08-21T17:10:46;30.50;77.30
66610;DHT22;53468;48.276;14.416;2023-08-21T17:15:48;30.40;78.50
66610;DHT22;53468;48.276;14.416;2023-08-21T17:20:52;30.30;78.80
66610;DHT22;53468;48.276;14.416;2023-08-21T17:25:55;30.10;75.90
66610;DHT22;53468;48.276;14.416;2023-08-21T17:30:57;29.90;77.40
66610;DHT22;53468;48.276;14.416;2023-08-21T17:35:59;29.80;76.50
66610;DHT22;53468;48.276;14.416;2023-08-21T17:41:03;29.60;77.90
66610;DHT22;53468;48.276;14.416;2023-08-21T17:46:08;29.50;81.80
66610;DHT22;53468;48.276;14.416;2023-08-21T17:51:10;29.30;82.20
66610;DHT22;53468;48.276;14.416;2023-08-21T17:56:15;28.90;86.60
66610;DHT22;53468;48.276;14.416;2023-08-21T18:01:17;28.50;88.90
66610;DHT22;53468;48.276;14.416;2023-08-21T18:06:19;28.20;90.20
66610;DHT22;53468;48.276;14.416;2023-08-21T18:11:23;27.80;93.00
66610;DHT22;53468;48.276;14.416;2023-08-21T18:16:25;27.60;94.70
66610;DHT22;53468;48.276;14.416;2023-08-21T18:21:27;27.40;97.60
66610;DHT22;53468;48.276;14.416;2023-08-21T18:26:32;27.00;97.40
66610;DHT22;53468;48.276;14.416;2023-08-21T18:31:34;26.60;98.30
66610;DHT22;53468;48.276;14.416;2023-08-21T18:36:37;26.50;99.30
66610;DHT22;53468;48.276;14.416;2023-08-21T18:41:40;26.00;99.90
66610;DHT22;53468;48.276;14.416;2023-08-21T18:46:43;25.80;99.90
66610;DHT22;53468;48.276;14.416;2023-08-21T18:51:45;25.60;99.90
66610;DHT22;53468;48.276;14.416;2023-08-21T18:56:49;25.40;99.90
66610;DHT22;53468;48.276;14.416;2023-08-21T19:01:51;25.40;99.90
66610;DHT22;53468;48.276;14.416;2023-08-21T19:06:53;25.20;99.90
66610;DHT22;53468;48.276;14.416;2023-08-21T19:11:57;25.00;99.90
66610;DHT22;53468;48.276;14.416;2023-08-21T19:16:59;24.90;99.90
66610;DHT22;53468;48.276;14.416;2023-08-21T19:22:01;24.70;99.90
66610;DHT22;53468;48.276;14.416;2023-08-21T19:27:06;24.50;99.90
66610;DHT22;53468;48.276;14.416;2023-08-21T19:32:08;24.50;99.90
66610;DHT22;53468;48.276;14.416;2023-08-21T19:37:10;24.50;99.90
66610;DHT22;53468;48.276;14.416;2023-08-21T19:42:14;24.40;99.90
66610;DHT22;53468;48.276;14.416;2023-08-21T19:47:16;24.40;99.90
66610;DHT22;53468;48.276;14.416;2023-08-21T19:52:18;24.10;99.90
66610;DHT22;53468;48.276;14.416;2023-08-21T19:57:22;24.00;99.90
66610;DHT22;53468;48.276;14.416;2023-08-21T20:02:24;24.00;99.90
66610;DHT22;53468;48.276;14.416;2023-08-21T20:07:26;23.90;99.90
66610;DHT22;53468;48.276;14.416;2023-08-21T20:12:30;23.70;99.90
66610;DHT22;53468;48.276;14.416;2023-08-21T20:17:32;23.70;99.90
66610;DHT22;53468;48.276;14.416;2023-08-21T20:22:34;23.60;99.90
66610;DHT22;53468;48.276;14.416;2023-08-21T20:27:37;23.50;99.90
66610;DHT22;53468;48.276;14.416;2023-08-21T20:32:40;23.50;99.90
66610;DHT22;53468;48.276;14.416;2023-08-21T20:37:42;23.20;99.90
66610;DHT22;53468;48.276;14.416;2023-08-21T20:42:46;23.00;99.90
66610;DHT22;53468;48.276;14.416;2023-08-21T20:47:48;23.00;99.90
66610;DHT22;53468;48.276;14.416;2023-08-21T20:52:50;23.00;99.90
66610;DHT22;53468;48.276;14.416;2023-08-21T20:57:54;23.00;99.90
66610;DHT22;53468;48.276;14.416;2023-08-21T21:02:56;23.00;99.90
66610;DHT22;53468;48.276;14.416;2023-08-21T21:07:58;22.90;99.90
66610;DHT22;53468;48.276;14.416;2023-08-21T21:13:02;22.80;99.90
66610;DHT22;53468;48.276;14.416;2023-08-21T21:18:05;22.60;99.90
66610;DHT22;53468;48.276;14.416;2023-08-21T21:23:07;22.40;99.90
66610;DHT22;53468;48.276;14.416;2023-08-21T21:28:12;22.30;99.90
66610;DHT22;53468;48.276;14.416;2023-08-21T21:33:15;22.30;99.90
66610;DHT22;53468;48.276;14.416;2023-08-21T21:38:18;22.30;99.90
66610;DHT22;53468;48.276;14.416;2023-08-21T21:43:23;22.20;99.90
66610;DHT22;53468;48.276;14.416;2023-08-21T21:48:25;22.10;99.90
66610;DHT22;53468;48.276;14.416;2023-08-21T21:53:28;21.90;99.90
66610;DHT22;53468;48.276;14.416;2023-08-21T21:58:31;21.90;99.90
66610;DHT22;53468;48.276;14.416;2023-08-21T22:03:33;21.90;99.90
66610;DHT22;53468;48.276;14.416;2023-08-21T22:08:35;21.80;99.90
66610;DHT22;53468;48.276;14.416;2023-08-21T22:13:39;21.70;99.90
66610;DHT22;53468;48.276;14.416;2023-08-21T22:18:41;21.60;99.90
66610;DHT22;53468;48.276;14.416;2023-08-21T22:23:44;21.60;99.90
66610;DHT22;53468;48.276;14.416;2023-08-21T22:28:48;21.60;99.90
66610;DHT22;53468;48.276;14.416;2023-08-21T22:33:51;21.50;99.90
66610;DHT22;53468;48.276;14.416;2023-08-21T22:38:53;21.50;99.90
66610;DHT22;53468;48.276;14.416;2023-08-21T22:43:57;21.40;99.90
66610;DHT22;53468;48.276;14.416;2023-08-21T22:48:59;21.40;99.90
66610;DHT22;53468;48.276;14.416;2023-08-21T22:54:01;21.20;99.90
66610;DHT22;53468;48.276;14.416;2023-08-21T22:59:05;21.10;99.90
66610;DHT22;53468;48.276;14.416;2023-08-21T23:04:07;21.00;99.90
66610;DHT22;53468;48.276;14.416;2023-08-21T23:09:11;21.10;99.90
66610;DHT22;53468;48.276;14.416;2023-08-21T23:14:16;21.10;99.90
66610;DHT22;53468;48.276;14.416;2023-08-21T23:19:18;21.10;99.90
66610;DHT22;53468;48.276;14.416;2023-08-21T23:24:20;21.00;99.90
66610;DHT22;53468;48.276;14.416;2023-08-21T23:29:24;21.00;99.90
66610;DHT22;53468;48.276;14.416;2023-08-21T23:34:26;21.00;99.90
66610;DHT22;53468;48.276;14.416;2023-08-21T23:39:28;20.90;99.90
66610;DHT22;53468;48.276;14.416;2023-08-21T23:44:32;20.90;99.90
66610;DHT22;53468;48.276;14.416;2023-08-21T23:49:34;20.90;99.90
66610;DHT22;53468;48.276;14.416;2023-08-21T23:54:36;20.80;99.90
66610;DHT22;53468;48.276;14.416;2023-08-21T23:59:40;20.80;99.90
